Time;durP1;ratioP1;P1;durP2;ratioP2;P2;SDS_P1;SDS_P2;PMS_P1;PMS_P2;Temp;Humidity;BMP_temperature;BMP_pressure;BME280_temperature;BME280_humidity;BME280_pressure;Samples;Min_cycle;Max_cycle;Signal;HPM_P1;HPM_P2
2022/07/13 00:01:48;;;;;;;2.58;1.80;;;20.70;99.90;;;;;;5091029;28;20642;-76
2022/07/13 00:04:14;;;;;;;4.63;1.80;;;20.70;99.90;;;;;;5090699;28;20218;-75
2022/07/13 00:06:39;;;;;;;3.58;2.03;;;20.70;99.90;;;;;;5072728;28;20214;-76
2022/07/13 00:09:05;;;;;;;1.80;1.70;;;20.70;99.90;;;;;;5091283;28;20169;-76
2022/07/13 00:11:30;;;;;;;4.13;2.00;;;20.70;99.90;;;;;;5067262;28;20626;-76
2022/07/13 00:13:56;;;;;;;2.05;1.63;;;20.70;99.90;;;;;;5070655;28;20632;-76
2022/07/13 00:16:22;;;;;;;4.78;2.42;;;20.70;99.90;;;;;;5070797;28;20199;-76
2022/07/13 00:18:47;;;;;;;2.10;1.80;;;20.80;99.90;;;;;;5089868;28;20329;-77
2022/07/13 00:21:13;;;;;;;2.80;1.65;;;20.80;99.90;;;;;;5090868;28;20193;-76
2022/07/13 00:23:39;;;;;;;4.00;1.55;;;20.80;99.90;;;;;;5091032;28;20195;-76
2022/07/13 00:26:05;;;;;;;2.80;1.80;;;20.70;99.90;;;;;;5090864;28;20682;-76
2022/07/13 00:28:30;;;;;;;5.07;1.88;;;20.70;99.90;;;;;;5072001;28;20284;-76
2022/07/13 00:30:56;;;;;;;3.53;1.80;;;20.70;99.90;;;;;;5072788;28;20200;-76
2022/07/13 00:33:21;;;;;;;1.50;1.40;;;20.80;99.90;;;;;;5090072;28;20218;-75
2022/07/13 00:35:47;;;;;;;3.00;1.80;;;20.80;99.90;;;;;;5073064;28;20178;-75
2022/07/13 00:38:13;;;;;;;2.08;1.75;;;20.80;99.90;;;;;;5090353;28;20644;-76
2022/07/13 00:40:38;;;;;;;2.63;1.60;;;20.80;99.90;;;;;;5090456;28;20210;-76
2022/07/13 00:43:04;;;;;;;4.53;1.52;;;20.90;99.90;;;;;;5072465;28;20360;-76
2022/07/13 00:45:29;;;;;;;3.80;2.13;;;20.90;99.90;;;;;;5090555;28;20205;-76
2022/07/13 00:47:56;;;;;;;1.98;1.55;;;20.90;99.90;;;;;;5072478;28;20245;-76
2022/07/13 00:50:22;;;;;;;2.53;1.83;;;20.90;99.90;;;;;;5072162;28;20733;-76
2022/07/13 00:52:48;;;;;;;4.07;2.00;;;21.00;99.90;;;;;;5090761;28;20294;-76
2022/07/13 00:55:15;;;;;;;3.38;2.05;;;21.00;99.90;;;;;;5072533;28;20884;-74
2022/07/13 00:57:40;;;;;;;3.85;2.00;;;21.00;99.90;;;;;;5090424;28;20236;-75
2022/07/13 01:00:10;;;;;;;4.10;2.30;;;21.00;99.90;;;;;;5090938;28;20654;-76
2022/07/13 01:02:41;;;;;;;4.50;2.20;;;21.00;99.90;;;;;;5071918;28;20206;-76
2022/07/13 01:05:07;;;;;;;3.35;2.05;;;20.90;99.90;;;;;;5090192;28;20214;-75
2022/07/13 01:07:33;;;;;;;2.97;2.10;;;20.90;99.90;;;;;;5072141;28;20752;-76
2022/07/13 01:10:07;;;;;;;2.15;1.55;;;20.90;99.90;;;;;;5093128;28;20198;-76
2022/07/13 01:12:37;;;;;;;3.60;2.30;;;20.90;99.90;;;;;;5079850;28;20724;-76
2022/07/13 01:15:04;;;;;;;3.08;1.80;;;20.90;99.90;;;;;;5081744;28;20174;-76
2022/07/13 01:17:31;;;;;;;2.42;1.80;;;20.90;99.90;;;;;;5095308;28;20214;-76
2022/07/13 01:19:57;;;;;;;2.92;1.90;;;20.80;99.90;;;;;;5090899;28;20203;-74
2022/07/13 01:22:32;;;;;;;3.50;2.35;;;20.90;99.90;;;;;;5074911;28;20206;-76
2022/07/13 01:24:58;;;;;;;2.95;1.95;;;20.80;99.90;;;;;;5055634;28;20210;-76
2022/07/13 01:27:23;;;;;;;4.15;1.92;;;20.80;99.90;;;;;;5073490;28;20187;-77
2022/07/13 01:29:49;;;;;;;2.88;1.77;;;20.90;99.90;;;;;;5073795;28;20248;-74
2022/07/13 01:32:15;;;;;;;2.50;1.67;;;20.90;99.90;;;;;;5055608;28;20272;-74
2022/07/13 01:34:40;;;;;;;3.05;1.80;;;20.90;99.90;;;;;;5073203;28;20211;-73
2022/07/13 01:37:06;;;;;;;2.90;1.63;;;20.90;99.90;;;;;;5073591;28;20210;-74
2022/07/13 01:39:32;;;;;;;2.28;1.70;;;20.90;99.90;;;;;;5073147;28;20222;-74
2022/07/13 01:41:57;;;;;;;2.28;1.73;;;20.80;99.90;;;;;;5073998;28;20164;-75
2022/07/13 01:44:23;;;;;;;4.60;1.83;;;20.90;99.90;;;;;;5054849;28;20214;-73
2022/07/13 01:46:49;;;;;;;2.63;1.60;;;20.90;99.90;;;;;;5058284;28;20259;-74
2022/07/13 01:49:14;;;;;;;4.35;1.90;;;20.90;99.90;;;;;;5074630;28;20218;-74
2022/07/13 01:51:40;;;;;;;3.42;1.70;;;20.80;99.90;;;;;;5093417;28;20209;-74
2022/07/13 01:54:05;;;;;;;3.22;1.85;;;20.80;99.90;;;;;;5075565;28;20222;-74
2022/07/13 01:56:34;;;;;;;2.22;2.00;;;20.80;99.90;;;;;;5093293;28;20210;-75
2022/07/13 01:59:00;;;;;;;3.53;1.70;;;20.70;99.90;;;;;;5075191;28;20221;-74
2022/07/13 02:01:26;;;;;;;3.05;1.58;;;20.70;99.90;;;;;;5075275;28;20698;-75
2022/07/13 02:03:51;;;;;;;2.33;1.70;;;20.70;99.90;;;;;;5094448;28;20218;-73
2022/07/13 02:06:17;;;;;;;2.17;1.50;;;20.70;99.90;;;;;;5075336;28;20175;-73
2022/07/13 02:08:43;;;;;;;4.25;1.98;;;20.60;99.90;;;;;;5093613;28;20240;-73
2022/07/13 02:11:14;;;;;;;4.65;1.90;;;20.60;99.90;;;;;;5090842;28;20809;-73
2022/07/13 02:13:40;;;;;;;2.50;1.75;;;20.70;99.90;;;;;;5054653;28;20265;-72
2022/07/13 02:16:06;;;;;;;4.40;1.70;;;20.70;99.90;;;;;;5072495;28;20687;-73
2022/07/13 02:18:31;;;;;;;1.85;1.67;;;20.70;99.90;;;;;;5089733;28;20206;-73
2022/07/13 02:20:57;;;;;;;1.65;1.55;;;20.70;99.90;;;;;;5092928;28;20535;-73
2022/07/13 02:23:22;;;;;;;2.75;1.65;;;20.70;99.90;;;;;;5092463;28;20206;-73
2022/07/13 02:25:48;;;;;;;1.75;1.45;;;20.60;99.90;;;;;;5092810;28;20222;-73
2022/07/13 02:28:13;;;;;;;1.73;1.50;;;20.60;99.90;;;;;;5083506;28;20245;-72
2022/07/13 02:30:39;;;;;;;2.97;1.70;;;20.50;99.90;;;;;;5081008;28;20219;-73
2022/07/13 02:33:05;;;;;;;1.45;1.35;;;20.50;99.90;;;;;;5078111;28;20599;-72
2022/07/13 02:35:30;;;;;;;1.85;1.75;;;20.50;99.90;;;;;;5081761;28;20253;-73
2022/07/13 02:37:56;;;;;;;1.95;1.70;;;20.50;99.90;;;;;;5065976;28;20218;-73
2022/07/13 02:40:21;;;;;;;6.68;2.05;;;20.50;99.90;;;;;;5083303;28;20195;-73
2022/07/13 02:42:47;;;;;;;1.73;1.60;;;20.50;99.90;;;;;;5080550;28;20679;-73
2022/07/13 02:45:13;;;;;;;1.70;1.60;;;20.50;99.90;;;;;;5080242;28;20219;-71
2022/07/13 02:47:39;;;;;;;2.20;1.85;;;20.50;99.90;;;;;;5083394;28;20189;-73
2022/07/13 02:50:05;;;;;;;3.55;1.55;;;20.50;99.90;;;;;;5083309;28;20285;-73
2022/07/13 02:52:30;;;;;;;1.77;1.67;;;20.50;99.90;;;;;;5064355;28;20241;-73
2022/07/13 02:54:56;;;;;;;3.42;1.98;;;20.40;99.90;;;;;;5080308;28;20224;-73
2022/07/13 02:57:21;;;;;;;3.40;1.92;;;20.40;99.90;;;;;;5080339;28;20213;-71
2022/07/13 02:59:47;;;;;;;3.83;1.95;;;20.40;99.90;;;;;;5083999;28;20201;-73
2022/07/13 03:02:12;;;;;;;1.63;1.52;;;20.30;99.90;;;;;;5083082;28;20704;-73
2022/07/13 03:04:38;;;;;;;2.60;2.22;;;20.40;99.90;;;;;;5074906;28;20306;-73
2022/07/13 03:07:04;;;;;;;4.75;2.97;;;20.40;99.90;;;;;;5059423;28;20625;-73
2022/07/13 03:09:29;;;;;;;4.93;3.58;;;20.30;99.90;;;;;;5062720;28;20647;-73
2022/07/13 03:11:55;;;;;;;4.85;4.35;;;20.30;99.90;;;;;;5083692;28;20203;-73
2022/07/13 03:14:20;;;;;;;8.68;5.55;;;20.30;99.90;;;;;;5079841;28;20690;-73
2022/07/13 03:16:46;;;;;;;4.18;3.03;;;20.40;99.90;;;;;;5062399;28;20245;-74
2022/07/13 03:19:12;;;;;;;3.28;2.13;;;20.40;99.90;;;;;;5061326;28;20203;-74
2022/07/13 03:21:37;;;;;;;2.22;1.77;;;20.40;99.90;;;;;;5063989;28;20208;-73
2022/07/13 03:24:03;;;;;;;4.53;2.60;;;20.50;99.90;;;;;;5083726;28;20194;-73
2022/07/13 03:26:29;;;;;;;2.70;1.80;;;20.50;99.90;;;;;;5064057;28;20244;-74
2022/07/13 03:28:55;;;;;;;2.22;1.80;;;20.50;99.90;;;;;;5079286;28;20238;-73
2022/07/13 03:31:21;;;;;;;5.95;2.20;;;20.50;99.90;;;;;;5078948;28;20219;-73
2022/07/13 03:33:47;;;;;;;4.68;1.90;;;20.50;99.90;;;;;;5064436;28;20581;-73
2022/07/13 03:36:13;;;;;;;5.60;1.70;;;20.50;99.90;;;;;;5083060;28;20236;-73
2022/07/13 03:38:38;;;;;;;2.72;1.80;;;20.50;99.90;;;;;;5080479;28;20643;-74
2022/07/13 03:41:04;;;;;;;2.58;1.77;;;20.50;99.90;;;;;;5079489;28;20202;-74
2022/07/13 03:43:30;;;;;;;2.75;1.92;;;20.50;99.90;;;;;;5080512;28;20234;-73
2022/07/13 03:45:56;;;;;;;4.10;1.67;;;20.50;99.90;;;;;;5082819;28;20652;-73
2022/07/13 03:48:21;;;;;;;2.35;1.98;;;20.50;99.90;;;;;;5074251;28;20206;-75
2022/07/13 03:50:48;;;;;;;2.40;1.80;;;20.50;99.90;;;;;;5083349;28;20753;-73
2022/07/13 03:53:14;;;;;;;3.30;1.60;;;20.50;99.90;;;;;;5082892;28;20210;-73
2022/07/13 03:55:41;;;;;;;2.72;1.98;;;20.50;99.90;;;;;;5071545;28;20770;-73
2022/07/13 03:58:07;;;;;;;2.50;2.17;;;20.50;99.90;;;;;;5078883;28;20211;-73
2022/07/13 04:00:33;;;;;;;1.60;1.50;;;20.50;99.90;;;;;;5080724;28;20206;-73
2022/07/13 04:02:59;;;;;;;2.67;1.70;;;20.50;99.90;;;;;;5082577;28;20210;-74
2022/07/13 04:05:25;;;;;;;2.80;1.58;;;20.50;99.90;;;;;;5079359;28;20273;-73
2022/07/13 04:07:51;;;;;;;3.72;2.05;;;20.50;99.90;;;;;;5082662;28;20345;-74
2022/07/13 04:10:20;;;;;;;2.08;1.60;;;20.50;99.90;;;;;;5082542;28;20680;-73
2022/07/13 04:12:47;;;;;;;2.15;1.70;;;20.50;99.90;;;;;;5077902;28;20689;-73
2022/07/13 04:15:14;;;;;;;3.80;1.77;;;20.50;99.90;;;;;;5082503;28;20207;-73
2022/07/13 04:17:40;;;;;;;2.72;1.90;;;20.60;99.90;;;;;;5079891;28;20189;-73
2022/07/13 04:20:07;;;;;;;4.53;1.80;;;20.60;99.90;;;;;;5078701;28;20202;-74
2022/07/13 04:22:33;;;;;;;3.53;1.80;;;20.60;99.90;;;;;;5080236;28;20222;-73
2022/07/13 04:24:59;;;;;;;2.05;1.75;;;20.70;99.90;;;;;;5082387;28;20210;-74
2022/07/13 04:27:25;;;;;;;2.03;1.80;;;20.60;99.90;;;;;;5081303;28;20175;-74
2022/07/13 04:29:51;;;;;;;3.15;1.80;;;20.60;99.90;;;;;;5079062;28;20221;-73
2022/07/13 04:32:16;;;;;;;4.32;2.20;;;20.60;99.90;;;;;;5083115;28;20683;-73
2022/07/13 04:34:42;;;;;;;6.28;2.08;;;20.60;99.90;;;;;;5061229;28;20207;-73
2022/07/13 04:37:07;;;;;;;3.13;1.80;;;20.60;99.90;;;;;;5078805;28;20203;-73
2022/07/13 04:39:33;;;;;;;3.03;1.60;;;20.60;99.90;;;;;;5080094;28;20213;-73
2022/07/13 04:41:59;;;;;;;1.73;1.63;;;20.60;99.90;;;;;;5082095;28;20262;-74
2022/07/13 04:44:28;;;;;;;3.80;2.40;;;20.60;99.90;;;;;;5074182;28;20211;-73
2022/07/13 04:46:54;;;;;;;4.22;2.30;;;20.60;99.90;;;;;;5079166;28;20225;-74
2022/07/13 04:49:19;;;;;;;2.33;1.98;;;20.60;99.90;;;;;;5076323;28;20697;-72
2022/07/13 04:51:47;;;;;;;3.28;1.95;;;20.70;99.90;;;;;;5074249;28;20595;-73
2022/07/13 04:54:16;;;;;;;2.10;1.90;;;20.70;99.90;;;;;;5074195;28;20746;-73
2022/07/13 04:56:41;;;;;;;5.55;2.03;;;20.80;99.90;;;;;;5074717;28;20187;-72
2022/07/13 04:59:07;;;;;;;3.55;2.03;;;20.90;99.90;;;;;;5074141;28;20213;-74
2022/07/13 05:01:32;;;;;;;2.95;1.92;;;20.80;99.90;;;;;;5055730;28;20206;-74
2022/07/13 05:03:58;;;;;;;3.78;1.80;;;20.90;99.90;;;;;;5073887;28;20223;-74
2022/07/13 05:06:24;;;;;;;2.78;1.60;;;21.00;99.90;;;;;;5056024;28;20187;-72
2022/07/13 05:08:49;;;;;;;2.17;1.90;;;21.00;99.90;;;;;;5074355;28;20557;-74
2022/07/13 05:11:15;;;;;;;4.38;2.00;;;21.10;99.90;;;;;;5074415;28;20209;-74
2022/07/13 05:13:40;;;;;;;2.70;1.70;;;21.20;99.90;;;;;;5073849;28;20777;-73
2022/07/13 05:16:06;;;;;;;3.70;1.77;;;21.20;99.90;;;;;;5056039;28;20253;-74
2022/07/13 05:18:32;;;;;;;1.88;1.42;;;21.20;99.90;;;;;;5055450;28;20557;-75
2022/07/13 05:20:57;;;;;;;2.60;2.30;;;21.30;99.90;;;;;;5074420;28;20163;-74
2022/07/13 05:23:23;;;;;;;4.68;1.75;;;21.40;99.90;;;;;;5073631;28;20223;-74
2022/07/13 05:25:49;;;;;;;2.15;1.55;;;21.50;99.90;;;;;;5073849;28;20721;-74
2022/07/13 05:28:14;;;;;;;2.55;1.40;;;21.50;99.90;;;;;;5073362;28;20695;-74
2022/07/13 05:30:40;;;;;;;2.85;1.90;;;21.50;99.90;;;;;;5073565;28;20512;-74
2022/07/13 05:33:05;;;;;;;3.25;2.15;;;21.60;99.90;;;;;;5074173;28;20194;-74
2022/07/13 05:35:31;;;;;;;3.33;2.10;;;21.70;99.90;;;;;;5073481;28;20257;-74
2022/07/13 05:37:56;;;;;;;2.03;1.80;;;21.70;99.90;;;;;;5055356;28;20244;-73
2022/07/13 05:40:22;;;;;;;3.58;1.80;;;21.80;99.90;;;;;;5073067;28;20614;-74
2022/07/13 05:42:47;;;;;;;4.30;1.80;;;21.80;99.90;;;;;;5089533;28;20198;-74
2022/07/13 05:45:13;;;;;;;7.25;2.50;;;21.70;99.90;;;;;;5093783;28;20285;-74
2022/07/13 05:47:45;;;;;;;4.95;2.08;;;21.70;99.90;;;;;;5075572;28;20659;-74
2022/07/13 05:50:14;;;;;;;4.65;2.10;;;21.70;99.90;;;;;;5075138;28;20800;-74
2022/07/13 05:52:40;;;;;;;5.75;1.98;;;21.70;99.90;;;;;;5074658;28;20206;-73
2022/07/13 05:55:06;;;;;;;2.40;1.90;;;21.70;99.90;;;;;;5074116;28;20587;-74
2022/07/13 05:57:32;;;;;;;3.40;2.15;;;21.70;99.90;;;;;;5074778;28;20667;-74
2022/07/13 05:59:57;;;;;;;3.67;1.80;;;21.80;99.90;;;;;;5075107;28;20202;-74
2022/07/13 06:02:23;;;;;;;5.43;2.08;;;21.90;99.90;;;;;;5066436;28;20321;-74
2022/07/13 06:04:48;;;;;;;4.55;2.03;;;22.00;99.90;;;;;;5073017;28;20707;-74
2022/07/13 06:07:14;;;;;;;3.50;1.98;;;22.10;99.90;;;;;;5054782;28;20306;-74
2022/07/13 06:09:40;;;;;;;5.60;2.08;;;22.10;99.90;;;;;;5072633;28;20199;-74
2022/07/13 06:12:05;;;;;;;6.13;2.03;;;22.30;99.90;;;;;;5055634;28;20171;-74
2022/07/13 06:14:31;;;;;;;4.70;1.92;;;22.50;99.90;;;;;;5072535;28;20253;-74
2022/07/13 06:16:56;;;;;;;2.70;1.90;;;22.60;99.90;;;;;;5072673;28;20683;-74
2022/07/13 06:19:22;;;;;;;5.93;1.98;;;22.80;99.90;;;;;;5072396;28;20198;-74
2022/07/13 06:21:48;;;;;;;5.18;2.10;;;22.90;99.90;;;;;;5072483;28;20203;-74
2022/07/13 06:24:13;;;;;;;3.45;1.40;;;23.00;99.90;;;;;;5054513;28;20210;-74
2022/07/13 06:26:39;;;;;;;1.77;1.55;;;23.10;99.90;;;;;;5073101;28;20167;-74
2022/07/13 06:29:05;;;;;;;3.25;2.13;;;23.20;99.90;;;;;;5054062;28;20196;-74
2022/07/13 06:31:30;;;;;;;1.50;1.40;;;23.30;99.90;;;;;;5054412;28;20203;-74
2022/07/13 06:33:56;;;;;;;3.75;1.73;;;23.40;99.90;;;;;;5072205;28;20207;-74
2022/07/13 06:36:21;;;;;;;5.28;1.70;;;23.50;99.90;;;;;;5072401;28;20178;-73
2022/07/13 06:38:48;;;;;;;5.97;1.90;;;23.50;99.90;;;;;;5073152;28;20171;-74
2022/07/13 06:41:13;;;;;;;4.15;1.80;;;23.50;99.90;;;;;;5075870;28;20205;-74
2022/07/13 06:43:39;;;;;;;2.13;1.65;;;23.70;99.90;;;;;;5092240;28;20210;-74
2022/07/13 06:46:05;;;;;;;2.25;1.70;;;23.90;99.90;;;;;;5092175;28;20827;-74
2022/07/13 06:48:31;;;;;;;2.90;1.58;;;24.10;99.90;;;;;;5091763;28;20206;-74
2022/07/13 06:50:56;;;;;;;1.75;1.38;;;24.20;99.90;;;;;;5092816;28;20180;-74
2022/07/13 06:53:22;;;;;;;4.25;1.70;;;24.40;99.90;;;;;;5092109;28;20213;-74
2022/07/13 06:55:48;;;;;;;2.97;1.85;;;24.60;99.90;;;;;;5092237;28;20722;-74
2022/07/13 06:58:13;;;;;;;2.30;1.50;;;24.70;99.90;;;;;;5076027;28;20199;-74
2022/07/13 07:00:39;;;;;;;4.68;1.58;;;24.90;99.90;;;;;;5071601;28;20233;-74
2022/07/13 07:03:04;;;;;;;2.63;1.60;;;25.00;99.90;;;;;;5054068;28;20218;-74
2022/07/13 07:05:30;;;;;;;2.75;1.50;;;25.10;99.90;;;;;;5071330;28;20213;-74
2022/07/13 07:07:55;;;;;;;2.28;1.20;;;25.20;99.90;;;;;;5071283;28;20687;-74
2022/07/13 07:10:21;;;;;;;3.03;1.48;;;25.30;99.90;;;;;;5071588;28;20222;-73
2022/07/13 07:12:47;;;;;;;2.50;1.90;;;25.40;99.90;;;;;;5071869;28;20199;-73
2022/07/13 07:15:12;;;;;;;2.75;1.73;;;25.50;99.90;;;;;;5071671;28;20254;-74
2022/07/13 07:17:48;;;;;;;3.00;1.65;;;25.70;99.90;;;;;;5091046;28;20239;-72
2022/07/13 07:20:15;;;;;;;3.15;1.70;;;25.80;99.90;;;;;;5091560;28;20297;-74
2022/07/13 07:22:41;;;;;;;3.85;1.67;;;25.90;99.90;;;;;;5073114;28;20327;-73
2022/07/13 07:25:08;;;;;;;3.60;1.48;;;25.90;99.90;;;;;;5059039;28;20652;-74
2022/07/13 07:27:34;;;;;;;2.72;1.50;;;25.80;99.90;;;;;;5089671;28;20698;-73
2022/07/13 07:29:59;;;;;;;2.78;1.40;;;25.90;99.90;;;;;;5091630;28;20170;-73
2022/07/13 07:32:25;;;;;;;2.85;1.55;;;26.20;99.90;;;;;;5091653;28;20208;-72
2022/07/13 07:34:50;;;;;;;3.05;1.85;;;26.50;99.90;;;;;;5068960;28;20203;-73
2022/07/13 07:37:20;;;;;;;2.20;1.60;;;26.90;99.90;;;;;;5053295;28;20696;-74
2022/07/13 07:39:46;;;;;;;2.65;1.63;;;27.20;99.90;;;;;;5079087;28;20203;-74
2022/07/13 07:42:12;;;;;;;1.83;1.35;;;27.70;99.90;;;;;;5082538;28;20685;-74
2022/07/13 07:44:37;;;;;;;2.60;1.63;;;28.00;99.90;;;;;;5091337;28;20206;-74
2022/07/13 07:47:03;;;;;;;2.97;1.52;;;28.20;99.90;;;;;;5073007;28;20206;-74
2022/07/13 07:49:28;;;;;;;1.80;1.45;;;28.20;99.90;;;;;;5090429;28;20206;-72
2022/07/13 07:51:54;;;;;;;2.78;1.40;;;28.00;99.90;;;;;;5091071;28;20237;-73
2022/07/13 07:54:19;;;;;;;1.85;1.67;;;28.00;99.90;;;;;;5091125;28;20248;-74
2022/07/13 07:56:45;;;;;;;1.73;1.60;;;28.20;99.90;;;;;;5079916;28;20178;-74
2022/07/13 07:59:11;;;;;;;2.85;1.50;;;28.70;99.90;;;;;;5070717;28;20245;-74
2022/07/13 08:01:36;;;;;;;2.97;1.70;;;29.10;99.90;;;;;;5070584;28;20253;-74
2022/07/13 08:04:02;;;;;;;6.43;1.50;;;29.10;99.90;;;;;;5072945;22;20301;-69
2022/07/13 08:06:27;;;;;;;1.80;1.70;;;29.30;99.90;;;;;;5063365;28;20180;-71
2022/07/13 08:08:53;;;;;;;1.55;1.45;;;29.30;99.90;;;;;;5063779;28;20175;-70
2022/07/13 08:11:19;;;;;;;2.47;1.45;;;29.50;99.90;;;;;;5070564;28;20606;-70
2022/07/13 08:13:46;;;;;;;1.42;1.25;;;29.60;99.90;;;;;;5058822;28;20294;-70
2022/07/13 08:16:16;;;;;;;2.53;1.50;;;29.20;99.90;;;;;;5070686;28;20214;-71
2022/07/13 08:18:42;;;;;;;3.72;1.60;;;28.90;99.90;;;;;;5051800;28;20214;-71
2022/07/13 08:21:08;;;;;;;1.92;1.33;;;28.50;99.90;;;;;;5065835;28;20194;-70
2022/07/13 08:23:52;;;;;;;1.75;1.50;;;28.40;99.90;;;;;;5060210;28;20294;-71
2022/07/13 08:26:28;;;;;;;1.63;1.52;;;28.70;99.90;;;;;;5070557;28;20298;-71
2022/07/13 08:28:55;;;;;;;1.65;1.10;;;29.80;99.90;;;;;;5070484;28;20206;-71
2022/07/13 08:31:22;;;;;;;1.70;1.60;;;30.70;99.90;;;;;;5070543;28;20294;-72
2022/07/13 08:39:18;;;;;;;2.72;1.30;;;34.30;98.60;;;;;;5055858;28;20721;-71
2022/07/13 08:41:44;;;;;;;2.35;1.10;;;34.30;96.40;;;;;;5070202;28;20174;-70
2022/07/13 08:44:10;;;;;;;1.55;1.27;;;34.00;96.10;;;;;;5070397;28;20209;-70
2022/07/13 08:46:36;;;;;;;1.42;1.30;;;33.30;96.50;;;;;;5070386;28;20253;-70
2022/07/13 08:49:02;;;;;;;4.05;1.60;;;32.80;96.60;;;;;;5052081;28;20222;-71
2022/07/13 08:51:32;;;;;;;1.58;1.33;;;32.70;97.40;;;;;;5070171;28;20179;-70
2022/07/13 08:53:59;;;;;;;8.05;5.57;;;32.70;97.50;;;;;;5052718;28;20195;-71
2022/07/13 08:56:25;;;;;;;2.53;1.50;;;32.40;97.80;;;;;;5070215;28;20226;-71
2022/07/13 08:58:52;;;;;;;2.58;1.30;;;32.80;97.30;;;;;;5051229;28;20238;-70
2022/07/13 09:01:19;;;;;;;2.63;1.98;;;32.80;96.50;;;;;;5052427;28;20257;-71
2022/07/13 09:03:45;;;;;;;5.30;2.90;;;32.80;96.50;;;;;;5069912;28;20299;-71
2022/07/13 09:06:40;;;;;;;4.57;2.15;;;32.90;96.60;;;;;;5070662;28;20202;-71
2022/07/13 09:09:06;;;;;;;1.48;1.30;;;33.00;96.60;;;;;;5070194;28;20175;-70
2022/07/13 09:11:32;;;;;;;1.98;1.58;;;32.30;96.40;;;;;;5069684;28;20230;-70
2022/07/13 09:13:58;;;;;;;1.17;1.10;;;32.90;96.10;;;;;;5055949;28;20207;-71
2022/07/13 09:16:28;;;;;;;1.60;1.50;;;33.00;95.60;;;;;;5052023;28;20210;-71
2022/07/13 09:18:59;;;;;;;4.57;4.18;;;33.10;95.30;;;;;;5069718;28;20199;-70
2022/07/13 09:21:26;;;;;;;3.13;1.60;;;33.50;95.00;;;;;;5069852;28;20531;-70
2022/07/13 09:23:56;;;;;;;1.42;1.23;;;33.00;94.10;;;;;;5069862;28;20210;-70
2022/07/13 09:26:23;;;;;;;2.60;1.23;;;32.90;94.40;;;;;;5069768;28;20214;-71
2022/07/13 09:28:51;;;;;;;1.50;1.38;;;32.90;94.60;;;;;;5069286;28;20207;-71
2022/07/13 09:31:18;;;;;;;3.83;2.15;;;32.60;95.00;;;;;;5073324;28;20292;-70
2022/07/13 09:33:46;;;;;;;2.88;1.92;;;32.30;94.70;;;;;;5073303;28;20580;-71
2022/07/13 09:36:22;;;;;;;2.17;1.90;;;31.80;95.70;;;;;;5055504;28;20547;-71
2022/07/13 09:38:51;;;;;;;3.50;1.80;;;31.40;96.40;;;;;;5073646;28;20179;-71
2022/07/13 09:41:24;;;;;;;2.05;1.45;;;31.40;97.10;;;;;;5072821;28;20195;-71
2022/07/13 09:47:01;;;;;;;1.95;1.67;;;32.00;96.50;;;;;;5073278;28;20229;-70
2022/07/13 09:49:32;;;;;;;1.33;1.23;;;31.90;96.80;;;;;;5073151;28;20202;-71
2022/07/13 09:51:58;;;;;;;3.03;1.83;;;31.90;96.50;;;;;;5073434;28;20207;-71
2022/07/13 09:54:27;;;;;;;1.98;1.40;;;32.10;96.40;;;;;;5072928;28;20606;-71
2022/07/13 09:56:58;;;;;;;3.45;1.30;;;32.20;96.40;;;;;;5073711;28;20171;-72
2022/07/13 09:59:24;;;;;;;3.15;1.48;;;32.20;96.10;;;;;;5072061;28;20281;-70
2022/07/13 10:01:51;;;;;;;1.55;1.45;;;32.10;95.70;;;;;;5065588;28;20521;-70
2022/07/13 10:04:17;;;;;;;1.55;1.20;;;31.60;96.00;;;;;;5072986;28;20285;-71
2022/07/13 10:06:43;;;;;;;2.33;1.30;;;31.50;96.20;;;;;;5073045;28;20203;-70
2022/07/13 10:09:09;;;;;;;1.85;1.50;;;31.70;96.70;;;;;;5073287;28;20178;-69
2022/07/13 10:11:34;;;;;;;2.50;1.40;;;31.90;96.50;;;;;;5072371;28;20273;-70
2022/07/13 10:14:00;;;;;;;1.55;1.30;;;31.70;96.40;;;;;;5058346;28;20301;-71
2022/07/13 10:16:30;;;;;;;2.85;1.50;;;31.70;96.30;;;;;;5064831;28;20199;-71
2022/07/13 10:19:00;;;;;;;2.45;1.83;;;31.90;96.30;;;;;;5072322;28;20695;-70
2022/07/13 10:21:57;;;;;;;1.33;1.10;;;31.80;96.40;;;;;;5072615;28;20186;-72
2022/07/13 10:24:22;;;;;;;3.33;1.40;;;32.00;95.60;;;;;;5063508;28;20211;-68
2022/07/13 10:26:49;;;;;;;2.90;1.40;;;31.90;95.80;;;;;;5044400;28;20198;-69
2022/07/13 10:29:15;;;;;;;1.38;1.10;;;31.90;95.40;;;;;;5052893;28;20224;-69
2022/07/13 10:31:41;;;;;;;3.15;1.23;;;31.20;96.10;;;;;;5054409;28;20832;-68
2022/07/13 10:34:12;;;;;;;2.03;1.50;;;31.40;96.90;;;;;;5066826;28;20291;-69
2022/07/13 10:36:56;;;;;;;3.13;1.55;;;31.70;96.40;;;;;;5059551;28;20715;-66
2022/07/13 10:39:24;;;;;;;4.53;1.30;;;31.60;95.60;;;;;;5063835;28;20183;-67
2022/07/13 10:42:00;;;;;;;3.05;1.65;;;31.50;96.10;;;;;;5046669;28;20171;-68
2022/07/13 10:44:35;;;;;;;2.97;1.70;;;31.40;95.80;;;;;;5063958;28;20210;-67
2022/07/13 10:47:03;;;;;;;3.45;1.95;;;30.90;96.60;;;;;;5072650;28;20202;-67
2022/07/13 10:49:32;;;;;;;2.60;1.20;;;30.90;96.70;;;;;;5072454;28;20199;-68
2022/07/13 10:52:25;;;;;;;13.82;3.65;;;30.70;96.80;;;;;;5072358;28;20263;-68
2022/07/13 10:55:03;;;;;;;9.32;3.78;;;30.80;99.40;;;;;;5072511;28;20834;-68
2022/07/13 10:57:30;;;;;;;8.80;3.10;;;30.90;97.60;;;;;;5052891;28;20185;-68
2022/07/13 11:00:19;;;;;;;4.47;2.10;;;30.90;96.60;;;;;;5057629;28;20197;-67
2022/07/13 11:02:50;;;;;;;8.50;2.55;;;30.70;95.60;;;;;;5055104;28;20207;-67
2022/07/13 11:05:26;;;;;;;9.85;2.38;;;30.80;97.70;;;;;;5068092;28;20219;-69
2022/07/13 11:07:52;;;;;;;5.88;1.80;;;30.70;95.10;;;;;;5071870;28;20199;-68
2022/07/13 11:10:25;;;;;;;8.23;2.58;;;30.40;95.00;;;;;;5072268;28;20199;-68
2022/07/13 11:12:57;;;;;;;3.38;1.85;;;30.20;95.10;;;;;;5065520;28;20208;-70
2022/07/13 11:15:23;;;;;;;1.92;1.45;;;30.10;94.40;;;;;;5060642;28;20736;-71
2022/07/13 11:17:53;;;;;;;1.52;1.42;;;30.10;94.20;;;;;;5056305;28;20179;-71
2022/07/13 11:20:19;;;;;;;2.05;1.60;;;30.20;94.50;;;;;;5071513;28;20210;-71
2022/07/13 11:25:48;;;;;;;4.20;1.80;;;30.10;95.60;;;;;;5081803;28;20246;-72
2022/07/13 11:28:36;;;;;;;2.22;1.40;;;29.80;95.70;;;;;;5078543;28;20740;-73
2022/07/13 11:31:03;;;;;;;5.05;2.20;;;29.80;96.00;;;;;;5066389;28;20241;-71
2022/07/13 11:33:29;;;;;;;4.82;1.80;;;29.80;96.50;;;;;;5054254;28;20187;-72
2022/07/13 11:35:55;;;;;;;1.67;1.25;;;29.70;96.60;;;;;;5057660;28;20221;-73
2022/07/13 11:38:21;;;;;;;2.40;2.00;;;29.50;96.80;;;;;;5071651;28;20207;-75
2022/07/13 11:40:47;;;;;;;7.97;1.60;;;29.40;97.10;;;;;;5095980;28;20195;-73
2022/07/13 11:43:12;;;;;;;3.75;2.10;;;29.30;96.80;;;;;;5075923;28;20206;-71
2022/07/13 11:45:40;;;;;;;4.18;1.70;;;29.30;96.90;;;;;;5070946;28;20222;-71
2022/07/13 11:48:09;;;;;;;2.80;1.73;;;29.40;96.80;;;;;;5053658;28;20233;-72
2022/07/13 11:50:53;;;;;;;4.80;1.90;;;29.50;96.80;;;;;;5070968;28;20290;-71
2022/07/13 11:53:28;;;;;;;2.20;1.90;;;29.50;96.80;;;;;;5070494;28;20206;-72
2022/07/13 11:55:57;;;;;;;3.05;1.90;;;29.60;97.10;;;;;;5053147;28;20218;-71
2022/07/13 11:58:34;;;;;;;3.25;2.10;;;29.80;97.20;;;;;;5070763;28;20217;-72
2022/07/13 12:01:08;;;;;;;3.85;1.80;;;30.00;97.00;;;;;;5053308;28;20202;-71
2022/07/13 12:03:34;;;;;;;2.53;1.67;;;30.10;96.60;;;;;;5070828;28;20203;-71
2022/07/13 12:06:02;;;;;;;2.30;1.70;;;29.90;97.00;;;;;;5071564;28;20187;-71
2022/07/13 12:08:30;;;;;;;2.15;1.58;;;30.00;96.60;;;;;;5052496;28;20633;-71
2022/07/13 12:10:56;;;;;;;3.17;2.67;;;30.10;96.40;;;;;;5070633;28;20246;-72
2022/07/13 12:13:22;;;;;;;2.15;1.88;;;30.10;96.50;;;;;;5067825;28;20203;-71
2022/07/13 12:15:48;;;;;;;5.38;2.70;;;30.50;96.00;;;;;;5062820;28;20209;-71
2022/07/13 12:18:14;;;;;;;5.25;1.85;;;30.80;95.60;;;;;;5070611;28;20258;-71
2022/07/13 12:20:40;;;;;;;2.28;2.00;;;30.90;94.70;;;;;;5068623;28;20611;-73
2022/07/13 12:23:08;;;;;;;3.28;2.03;;;30.90;95.40;;;;;;5057053;28;21030;-71
2022/07/13 12:25:39;;;;;;;3.65;1.70;;;30.90;95.20;;;;;;5070168;28;20222;-71
2022/07/13 12:28:09;;;;;;;2.47;1.60;;;30.90;94.70;;;;;;5070587;28;20289;-71
2022/07/13 12:30:39;;;;;;;3.13;1.80;;;30.90;93.90;;;;;;5070576;28;20214;-74
2022/07/13 12:33:09;;;;;;;2.22;1.45;;;30.70;92.10;;;;;;5071241;28;20171;-71
2022/07/13 12:35:37;;;;;;;3.80;1.40;;;30.50;91.10;;;;;;5060400;28;20219;-71
2022/07/13 12:38:05;;;;;;;2.72;1.40;;;30.50;90.90;;;;;;5046668;28;20207;-71
2022/07/13 12:40:46;;;;;;;2.28;1.38;;;30.40;90.20;;;;;;5070386;28;20206;-70
2022/07/13 12:43:31;;;;;;;1.40;1.23;;;30.30;89.50;;;;;;5063194;28;20202;-71
2022/07/13 12:45:59;;;;;;;1.90;1.40;;;30.40;89.50;;;;;;5063556;28;20293;-71
2022/07/13 12:48:27;;;;;;;2.58;1.30;;;30.20;88.90;;;;;;5052173;28;20175;-71
2022/07/13 12:51:00;;;;;;;6.03;1.52;;;30.30;89.10;;;;;;5070986;28;20182;-71
2022/07/13 12:53:50;;;;;;;1.40;1.30;;;30.20;88.10;;;;;;5070312;28;20199;-71
2022/07/13 12:56:20;;;;;;;4.78;1.67;;;30.20;87.70;;;;;;5060954;28;20203;-71
2022/07/13 12:58:48;;;;;;;3.42;1.48;;;30.10;87.20;;;;;;5070454;28;20211;-71
2022/07/13 13:01:27;;;;;;;2.40;1.30;;;30.10;88.00;;;;;;5054772;28;20212;-71